Terminal Aerodrome Forecast
Issued by NWS Memphis, TN

Home | Current Version | Previous Version | Text Only | Print | Product List | Glossary On
Versions: 1 2 3 4 5 6 7 8 9 10 11 12 13 14 15 16
000
FTUS44 KMEG 242209 AAA
TAFJBR
TAF AMD
KJBR 242209Z 2422/2518 35010G22KT 4SM TSRA BKN035CB BKN050 OVC100
     FM242330 20008KT P6SM VCTS SCT020 BKN040CB
     FM250100 VRB03KT P6SM VCTS BKN040CB BKN150
     FM251500 21007KT P6SM VCTS BKN040CB BKN150=

USA.gov is the U.S. government's official web portal to all federal, state and local government web resources and services.